createdAt,value
2023-02-07T00:02:36.960Z,971.19
2023-02-07T00:17:39.286Z,971.41
2023-02-07T00:32:41.598Z,971.43
2023-02-07T00:47:43.968Z,971.44
2023-02-07T01:02:46.288Z,971.44
2023-02-07T01:17:48.552Z,971.46
2023-02-07T01:32:50.777Z,971.66
2023-02-07T01:47:53.036Z,971.67
2023-02-07T02:02:55.584Z,971.66
2023-02-07T02:17:57.924Z,971.81
2023-02-07T02:33:00.206Z,971.62
2023-02-07T02:48:02.525Z,971.42
2023-02-07T03:03:04.888Z,971.22
2023-02-07T03:18:07.158Z,971.34
2023-02-07T03:33:09.423Z,971.19
2023-02-07T03:48:11.818Z,971.41
2023-02-07T04:03:14.098Z,971.37
2023-02-07T04:18:16.550Z,971.46
2023-02-07T04:33:18.864Z,971.38
2023-02-07T04:48:21.119Z,971.32
2023-02-07T05:03:23.389Z,971.37
2023-02-07T05:18:25.740Z,971.28
2023-02-07T05:33:28.066Z,971.41
2023-02-07T05:48:30.286Z,971.17
2023-02-07T06:03:32.784Z,970.86
2023-02-07T06:18:35.070Z,970.73
2023-02-07T06:33:37.396Z,970.46
2023-02-07T06:48:39.769Z,970.47
2023-02-07T07:03:41.909Z,970.43
2023-02-07T07:18:44.104Z,970.59
2023-02-07T07:33:46.365Z,970.54
2023-02-07T07:48:48.600Z,970.61
2023-02-07T08:03:51.028Z,970.51
2023-02-07T08:18:53.215Z,970.39
2023-02-07T08:33:55.556Z,970.37
2023-02-07T08:48:57.801Z,970.27
2023-02-07T09:03:59.983Z,970.2
2023-02-07T09:19:02.229Z,970.03
2023-02-07T09:34:04.465Z,970.05
2023-02-07T09:49:06.690Z,970
2023-02-07T10:04:08.918Z,970.04
2023-02-07T10:19:11.188Z,969.92
2023-02-07T10:34:13.430Z,969.71
2023-02-07T10:49:15.761Z,969.59
2023-02-07T11:04:18.057Z,969.49
2023-02-07T11:19:20.223Z,969.64
2023-02-07T11:34:22.869Z,969.46
2023-02-07T11:49:25.188Z,969.23
2023-02-07T12:04:27.447Z,969.22
2023-02-07T12:19:29.682Z,969.43
2023-02-07T12:34:31.968Z,969.39
2023-02-07T12:49:34.201Z,969.53
2023-02-07T13:04:36.429Z,969.6
2023-02-07T13:19:38.640Z,969.55
2023-02-07T13:34:40.835Z,969.46
2023-02-07T13:49:43.181Z,969.43
2023-02-07T14:04:45.450Z,969.47
2023-02-07T14:19:47.712Z,969.51
2023-02-07T14:34:50.024Z,969.53
2023-02-07T14:49:52.379Z,969.38
2023-02-07T15:04:54.620Z,969.35
2023-02-07T15:19:56.888Z,969.51
2023-02-07T15:34:59.120Z,969.49
2023-02-07T15:50:01.373Z,969.38
2023-02-07T16:05:03.668Z,969.23
2023-02-07T16:20:06.334Z,969.19
2023-02-07T16:35:08.553Z,969.25
2023-02-07T16:50:10.924Z,969.19
2023-02-07T17:05:13.175Z,969.14
2023-02-07T17:20:15.354Z,969.03
2023-02-07T17:35:17.558Z,968.95
2023-02-07T17:50:19.855Z,968.82
2023-02-07T18:05:22.420Z,968.78
2023-02-07T18:20:24.629Z,968.66
2023-02-07T18:35:26.896Z,968.55
2023-02-07T18:50:29.466Z,968.34
2023-02-07T19:05:31.886Z,968.12
2023-02-07T19:20:34.204Z,967.78
2023-02-07T19:35:36.601Z,967.47
2023-02-07T19:50:39.144Z,967.15
2023-02-07T20:05:41.540Z,966.91
2023-02-07T20:20:43.833Z,966.56
2023-02-07T20:35:46.054Z,966.21
2023-02-07T20:50:48.533Z,965.96
2023-02-07T21:05:50.902Z,965.6
2023-02-07T21:20:53.113Z,965.39
2023-02-07T21:35:55.369Z,965.25
2023-02-07T21:50:57.643Z,965.07
2023-02-07T22:05:59.858Z,964.82
2023-02-07T22:21:02.059Z,964.75
2023-02-07T22:36:04.345Z,964.7
2023-02-07T22:51:06.559Z,964.64
2023-02-07T23:06:08.817Z,964.65
2023-02-07T23:21:10.996Z,964.59
2023-02-07T23:36:13.324Z,964.63
2023-02-07T23:51:15.560Z,964.5
